Terminal Aerodrome Forecast
Issued by NWS

Home | Current Version | Previous Version | Text Only | Print | Product List | Glossary On
Versions: 1 2 3 4 5 6 7 8 9 10 11 12 13 14 15 16 17 18 19 20 21 22 23 24 25 26 27 28 29 30 31 32 33 34 35 36
000
FTUS41 KBOX 051724
TAFBED
TAF
KBED 051724Z 0518/0618 22005KT 2SM -SN OVC005
     FM051900 24005KT P6SM SCT005 OVC015
     FM052000 26006KT P6SM BKN060
     FM052100 27006KT P6SM SCT250
     FM061300 33004KT P6SM SKC=

USA.gov is the U.S. government's official web portal to all federal, state and local government web resources and services.